Time;durP1;ratioP1;P1;durP2;ratioP2;P2;SDS_P1;SDS_P2;PMS_P1;PMS_P2;Temp;Humidity;BMP_temperature;BMP_pressure;BME280_temperature;BME280_humidity;BME280_pressure;Samples;Min_cycle;Max_cycle;Signal;HPM_P1;HPM_P2
2023/01/23 00:00:48;;;;;;;31.57;19.67;;;1.20;99.90;;;;;;5137037;27;20468;-62
2023/01/23 00:03:15;;;;;;;29.23;19.00;;;1.20;99.90;;;;;;5136465;28;20458;-62
2023/01/23 00:05:42;;;;;;;26.57;17.90;;;1.10;99.90;;;;;;5137078;28;20465;-62
2023/01/23 00:08:09;;;;;;;30.30;19.03;;;1.20;99.90;;;;;;5137940;28;20463;-62
2023/01/23 00:10:39;;;;;;;32.10;19.87;;;1.20;99.90;;;;;;5138688;27;20462;-62
2023/01/23 00:13:07;;;;;;;28.10;17.40;;;1.10;99.90;;;;;;5137562;28;20479;-62
2023/01/23 00:15:34;;;;;;;28.77;19.10;;;1.10;99.90;;;;;;5137974;27;20627;-62
2023/01/23 00:18:01;;;;;;;26.67;18.70;;;1.10;99.90;;;;;;5138322;28;20457;-62
2023/01/23 00:20:28;;;;;;;27.03;18.03;;;1.20;99.90;;;;;;5138476;28;20433;-61
2023/01/23 00:22:55;;;;;;;26.57;19.20;;;1.20;99.90;;;;;;5138262;28;20459;-63
2023/01/23 00:25:22;;;;;;;29.27;17.90;;;1.20;99.90;;;;;;5137435;28;20440;-63
2023/01/23 00:27:50;;;;;;;25.17;18.10;;;1.20;99.90;;;;;;5137731;28;20868;-62
2023/01/23 00:30:21;;;;;;;27.00;17.20;;;1.20;99.90;;;;;;5137275;28;20462;-62
2023/01/23 00:32:48;;;;;;;26.07;18.10;;;1.20;99.90;;;;;;5138252;28;20462;-63
2023/01/23 00:35:15;;;;;;;26.53;18.27;;;1.20;99.90;;;;;;5138059;27;20782;-62
2023/01/23 00:37:43;;;;;;;27.20;19.00;;;1.20;99.90;;;;;;5137710;28;20459;-63
2023/01/23 00:40:12;;;;;;;30.70;18.23;;;1.20;99.90;;;;;;5140702;27;20738;-63
2023/01/23 00:42:39;;;;;;;25.70;17.50;;;1.20;99.90;;;;;;5142056;27;20466;-63
2023/01/23 00:45:08;;;;;;;28.40;18.20;;;1.20;99.90;;;;;;5142169;27;20465;-63
2023/01/23 00:47:35;;;;;;;28.30;19.10;;;1.20;99.90;;;;;;5141761;27;20433;-63
2023/01/23 00:50:03;;;;;;;31.67;18.87;;;1.20;99.90;;;;;;5141879;27;20463;-63
2023/01/23 00:52:30;;;;;;;26.50;17.97;;;1.20;99.90;;;;;;5142316;27;20441;-63
2023/01/23 00:54:57;;;;;;;27.03;18.13;;;1.20;99.90;;;;;;5142207;27;20489;-63
2023/01/23 00:57:24;;;;;;;26.30;17.20;;;1.20;99.90;;;;;;5141310;27;20493;-63
2023/01/23 00:59:51;;;;;;;26.83;18.20;;;1.20;99.90;;;;;;5141632;27;20459;-63
2023/01/23 01:02:20;;;;;;;30.97;19.30;;;1.10;99.90;;;;;;5141678;27;20474;-63
2023/01/23 01:04:47;;;;;;;29.43;19.17;;;1.10;99.90;;;;;;5141722;27;20450;-63
2023/01/23 01:07:14;;;;;;;26.70;18.00;;;1.10;99.90;;;;;;5141174;27;20473;-63
2023/01/23 01:09:41;;;;;;;28.17;17.60;;;1.20;99.90;;;;;;5141181;27;20508;-63
2023/01/23 01:12:08;;;;;;;27.47;16.80;;;1.20;99.90;;;;;;5141616;27;20513;-64
2023/01/23 01:14:36;;;;;;;27.10;18.50;;;1.10;99.90;;;;;;5141430;27;20491;-64
2023/01/23 01:17:03;;;;;;;25.40;17.93;;;1.10;99.90;;;;;;5141618;27;20905;-64
2023/01/23 01:19:31;;;;;;;28.70;19.23;;;1.20;99.90;;;;;;5141126;27;20453;-64
2023/01/23 01:21:58;;;;;;;26.37;17.40;;;1.20;99.90;;;;;;5141117;27;20459;-64
2023/01/23 01:24:26;;;;;;;28.13;17.73;;;1.20;99.90;;;;;;5141216;27;20454;-63
2023/01/23 01:26:53;;;;;;;31.70;19.50;;;1.20;99.90;;;;;;5141472;27;20458;-63
2023/01/23 01:29:20;;;;;;;31.00;19.43;;;1.20;99.90;;;;;;5140122;27;21014;-63
2023/01/23 01:31:47;;;;;;;27.97;18.10;;;1.20;99.90;;;;;;5141092;27;20469;-63
2023/01/23 01:34:20;;;;;;;32.17;20.00;;;1.10;99.90;;;;;;5140336;27;20490;-63
2023/01/23 01:36:48;;;;;;;26.37;17.70;;;1.20;99.90;;;;;;5140981;27;20558;-63
2023/01/23 01:39:15;;;;;;;29.43;18.50;;;1.20;99.90;;;;;;5140256;27;20553;-63
2023/01/23 01:41:43;;;;;;;26.23;17.10;;;1.20;99.90;;;;;;5141023;27;20550;-63
2023/01/23 01:44:15;;;;;;;27.73;17.80;;;1.20;99.90;;;;;;5140560;27;20537;-63
2023/01/23 01:46:44;;;;;;;28.43;18.93;;;1.20;99.90;;;;;;5140873;27;20876;-63
2023/01/23 01:49:14;;;;;;;28.33;19.03;;;1.20;99.90;;;;;;5140599;27;20821;-63
2023/01/23 01:51:46;;;;;;;28.00;18.00;;;1.20;99.90;;;;;;5139293;27;20458;-62
2023/01/23 01:54:22;;;;;;;30.43;18.90;;;1.20;99.90;;;;;;5140639;27;20822;-63
2023/01/23 01:56:55;;;;;;;26.50;17.73;;;1.20;99.90;;;;;;5140663;27;20462;-63
2023/01/23 01:59:24;;;;;;;25.33;17.50;;;1.20;99.90;;;;;;5140580;27;20766;-62
2023/01/23 02:01:57;;;;;;;25.03;17.47;;;1.20;99.90;;;;;;5140645;27;20898;-63
2023/01/23 02:04:24;;;;;;;28.33;18.93;;;1.20;99.90;;;;;;5140051;27;20518;-63
2023/01/23 02:06:53;;;;;;;27.23;18.70;;;1.20;99.90;;;;;;5140354;27;20466;-63
2023/01/23 02:09:26;;;;;;;28.77;19.17;;;1.20;99.90;;;;;;5140185;27;20974;-63
2023/01/23 02:11:54;;;;;;;27.00;19.00;;;1.20;99.90;;;;;;5134264;27;20430;-63
2023/01/23 02:14:23;;;;;;;28.43;18.90;;;1.20;99.90;;;;;;5119767;28;20830;-62
2023/01/23 02:16:51;;;;;;;27.00;18.60;;;1.20;99.90;;;;;;5119832;28;20487;-63
2023/01/23 02:19:32;;;;;;;29.73;17.00;;;1.10;99.90;;;;;;5119236;28;20460;-63
2023/01/23 02:22:07;;;;;;;26.20;16.53;;;1.10;99.90;;;;;;5124243;27;20473;-63
2023/01/23 02:24:42;;;;;;;24.20;16.70;;;1.10;99.90;;;;;;5140306;27;20887;-63
2023/01/23 02:27:11;;;;;;;27.17;18.10;;;1.20;99.90;;;;;;5126724;27;20467;-63
2023/01/23 02:29:43;;;;;;;25.27;17.13;;;1.20;99.90;;;;;;5118573;28;20470;-63
2023/01/23 02:32:11;;;;;;;24.97;17.30;;;1.20;99.90;;;;;;5120360;27;20441;-63
2023/01/23 02:34:38;;;;;;;27.53;17.93;;;1.20;99.90;;;;;;5119316;28;20487;-63
2023/01/23 02:37:06;;;;;;;22.27;15.97;;;1.00;99.90;;;;;;5135106;27;20470;-63
2023/01/23 02:39:33;;;;;;;25.57;17.77;;;1.10;99.90;;;;;;5139504;27;20465;-63
2023/01/23 02:42:01;;;;;;;24.00;16.30;;;1.10;99.90;;;;;;5139847;27;20497;-63
2023/01/23 02:44:31;;;;;;;24.87;17.53;;;1.10;99.90;;;;;;5140131;27;20760;-63
2023/01/23 02:47:01;;;;;;;26.73;17.80;;;1.10;99.90;;;;;;5129478;27;20464;-63
2023/01/23 02:49:28;;;;;;;22.97;15.77;;;1.00;99.90;;;;;;5133274;27;20469;-63
2023/01/23 02:51:56;;;;;;;23.93;15.87;;;1.10;99.90;;;;;;5139822;27;20462;-64
2023/01/23 02:54:24;;;;;;;25.80;17.40;;;1.10;99.90;;;;;;5139785;27;20757;-64
2023/01/23 02:56:51;;;;;;;23.70;16.80;;;1.10;99.90;;;;;;5139566;27;20898;-63
2023/01/23 03:02:05;;;;;;;25.30;16.10;;;1.10;99.90;;;;;;5138328;27;20761;-64
2023/01/23 03:04:32;;;;;;;25.60;18.20;;;1.10;99.90;;;;;;5139497;27;20507;-64
2023/01/23 03:07:00;;;;;;;25.10;17.10;;;1.00;99.90;;;;;;5139571;27;20487;-64
2023/01/23 03:09:27;;;;;;;26.13;18.23;;;1.10;99.90;;;;;;5131881;27;20509;-64
2023/01/23 03:11:54;;;;;;;24.67;17.13;;;1.10;99.90;;;;;;5118908;28;20459;-63
2023/01/23 03:14:22;;;;;;;25.40;17.40;;;1.10;99.90;;;;;;5118918;27;20494;-63
2023/01/23 03:16:52;;;;;;;22.37;16.73;;;1.10;99.90;;;;;;5118306;28;20459;-63
2023/01/23 03:19:23;;;;;;;25.17;17.70;;;1.10;99.90;;;;;;5118473;28;20517;-64
2023/01/23 03:21:51;;;;;;;25.77;17.30;;;1.10;99.90;;;;;;5118657;28;20463;-63
2023/01/23 03:24:19;;;;;;;25.90;18.00;;;1.20;99.90;;;;;;5122995;27;20455;-63
2023/01/23 03:26:47;;;;;;;25.90;17.47;;;1.10;99.90;;;;;;5139300;27;20871;-64
2023/01/23 03:32:01;;;;;;;24.17;17.73;;;1.10;99.90;;;;;;5138586;27;20430;-63
2023/01/23 03:34:30;;;;;;;26.53;16.60;;;1.00;99.90;;;;;;5136801;27;20455;-63
2023/01/23 03:36:57;;;;;;;26.60;18.57;;;1.10;99.90;;;;;;5138511;27;20494;-63
2023/01/23 03:42:09;;;;;;;19.90;14.73;;;1.10;99.90;;;;;;5138548;27;20739;-64
2023/01/23 03:44:36;;;;;;;24.63;16.80;;;1.00;99.90;;;;;;5138630;27;20454;-64
2023/01/23 03:47:04;;;;;;;23.70;16.70;;;1.10;99.90;;;;;;5119622;27;20462;-64
2023/01/23 03:49:32;;;;;;;25.60;17.67;;;1.10;99.90;;;;;;5117709;28;20467;-63
2023/01/23 03:52:00;;;;;;;26.67;18.30;;;1.00;99.90;;;;;;5117930;28;20439;-64
2023/01/23 03:54:27;;;;;;;27.33;18.10;;;1.10;99.90;;;;;;5118238;28;20462;-63
2023/01/23 03:56:54;;;;;;;24.77;17.43;;;1.10;99.90;;;;;;5129822;27;20553;-64
2023/01/23 03:59:21;;;;;;;27.40;19.30;;;1.10;99.90;;;;;;5138086;27;20528;-64
2023/01/23 04:01:48;;;;;;;31.23;19.17;;;1.10;99.90;;;;;;5138361;27;20462;-64
2023/01/23 04:04:16;;;;;;;26.07;19.10;;;1.10;99.90;;;;;;5138702;27;20508;-64
2023/01/23 04:06:45;;;;;;;28.43;18.80;;;1.10;99.90;;;;;;5130278;27;20453;-64
2023/01/23 04:09:12;;;;;;;28.00;19.40;;;1.10;99.90;;;;;;5117699;28;20465;-64
2023/01/23 04:11:39;;;;;;;29.00;19.10;;;1.10;99.90;;;;;;5117728;28;20558;-64
2023/01/23 04:14:06;;;;;;;27.03;18.60;;;1.10;99.90;;;;;;5118720;28;20770;-64
2023/01/23 04:16:33;;;;;;;28.60;18.93;;;1.10;99.90;;;;;;5123742;27;20498;-64
2023/01/23 04:19:00;;;;;;;27.93;18.30;;;1.10;99.90;;;;;;5142872;27;20462;-64
2023/01/23 04:21:27;;;;;;;26.13;18.33;;;1.10;99.90;;;;;;5141945;27;20466;-64
2023/01/23 04:23:56;;;;;;;25.20;17.13;;;1.10;99.90;;;;;;5142406;27;20470;-64
2023/01/23 04:26:23;;;;;;;28.63;19.80;;;1.10;99.90;;;;;;5142739;27;20750;-64
2023/01/23 04:28:50;;;;;;;29.67;19.47;;;1.10;99.90;;;;;;5122493;27;20460;-64
2023/01/23 04:31:17;;;;;;;24.77;18.10;;;1.10;99.90;;;;;;5121488;27;20459;-64
2023/01/23 04:33:44;;;;;;;26.90;18.50;;;1.10;99.90;;;;;;5122164;28;20462;-64
2023/01/23 04:36:11;;;;;;;25.07;18.30;;;1.10;99.90;;;;;;5138796;27;20766;-64
2023/01/23 04:38:38;;;;;;;26.80;16.87;;;1.10;99.90;;;;;;5140719;27;20485;-64
2023/01/23 04:41:07;;;;;;;28.13;18.07;;;1.10;99.90;;;;;;5142047;27;20458;-64
2023/01/23 04:43:34;;;;;;;23.87;16.20;;;1.10;99.90;;;;;;5141799;27;20464;-64
2023/01/23 04:46:01;;;;;;;22.47;16.40;;;1.10;99.90;;;;;;5142089;27;20895;-64
2023/01/23 04:48:28;;;;;;;24.23;16.50;;;1.10;99.90;;;;;;5141425;27;20511;-64
2023/01/23 04:50:56;;;;;;;24.60;16.27;;;1.10;99.90;;;;;;5142146;27;20881;-64
2023/01/23 04:53:23;;;;;;;22.53;16.20;;;1.10;99.90;;;;;;5141367;27;20876;-65
2023/01/23 04:55:50;;;;;;;22.70;16.17;;;1.10;99.90;;;;;;5141835;27;20490;-65
2023/01/23 04:58:19;;;;;;;23.83;16.80;;;1.10;99.90;;;;;;5140688;27;20437;-65
2023/01/23 05:00:47;;;;;;;23.80;17.73;;;1.10;99.90;;;;;;5121172;28;20459;-64
2023/01/23 05:03:14;;;;;;;25.13;17.63;;;1.10;99.90;;;;;;5121204;27;20460;-64
2023/01/23 05:05:43;;;;;;;22.07;15.10;;;1.10;99.90;;;;;;5121007;28;20482;-64
2023/01/23 05:08:10;;;;;;;22.10;14.80;;;1.00;99.90;;;;;;5120765;28;20463;-64
2023/01/23 05:10:37;;;;;;;20.87;14.83;;;1.00;99.90;;;;;;5137466;27;20469;-64
2023/01/23 05:13:05;;;;;;;22.73;16.30;;;1.00;99.90;;;;;;5141211;27;20484;-64
2023/01/23 05:15:34;;;;;;;23.10;15.87;;;1.00;99.90;;;;;;5141427;27;20490;-64
2023/01/23 05:18:01;;;;;;;22.13;16.40;;;0.90;99.90;;;;;;5141372;27;20462;-63
2023/01/23 05:20:28;;;;;;;24.63;16.73;;;0.90;99.90;;;;;;5129026;27;20466;-63
2023/01/23 05:22:55;;;;;;;25.17;16.43;;;0.90;99.90;;;;;;5120763;28;20459;-63
2023/01/23 05:25:24;;;;;;;21.43;15.40;;;0.90;99.90;;;;;;5120347;28;20459;-63
2023/01/23 05:27:52;;;;;;;20.80;15.27;;;0.90;99.90;;;;;;5121306;27;20468;-64
2023/01/23 05:30:22;;;;;;;22.53;16.00;;;0.90;99.90;;;;;;5119646;27;20440;-63
2023/01/23 05:32:50;;;;;;;21.93;15.93;;;0.90;99.90;;;;;;5120612;28;20456;-63
2023/01/23 05:35:18;;;;;;;21.87;15.17;;;1.00;99.90;;;;;;5120168;28;20910;-63
2023/01/23 05:37:49;;;;;;;22.27;15.60;;;1.00;99.90;;;;;;5124603;27;20465;-63
2023/01/23 05:40:16;;;;;;;22.03;15.37;;;1.00;99.90;;;;;;5140709;27;20805;-60
2023/01/23 05:42:43;;;;;;;25.03;17.90;;;1.00;99.90;;;;;;5141248;27;20876;-63
2023/01/23 05:45:11;;;;;;;23.30;16.57;;;1.00;99.90;;;;;;5140499;27;20465;-63
2023/01/23 05:47:38;;;;;;;24.47;17.20;;;1.00;99.90;;;;;;5138502;27;20458;-63
2023/01/23 05:50:08;;;;;;;25.40;17.43;;;1.10;99.90;;;;;;5128147;27;20879;-65
2023/01/23 05:52:43;;;;;;;24.77;16.20;;;1.10;99.90;;;;;;5134576;27;20471;-64
2023/01/23 05:55:10;;;;;;;22.33;16.63;;;1.10;99.90;;;;;;5133022;27;20487;-64
2023/01/23 05:57:37;;;;;;;24.93;17.23;;;1.10;99.90;;;;;;5140304;27;20890;-64
2023/01/23 06:00:06;;;;;;;24.40;17.40;;;1.10;99.90;;;;;;5124207;27;20463;-64
2023/01/23 06:02:36;;;;;;;23.33;16.60;;;1.10;99.90;;;;;;5138046;27;20467;-64
2023/01/23 06:05:03;;;;;;;23.20;16.33;;;1.10;99.90;;;;;;5139084;27;20840;-64
2023/01/23 06:07:32;;;;;;;24.60;17.77;;;1.10;99.90;;;;;;5138353;27;20465;-64
2023/01/23 06:09:59;;;;;;;23.57;16.73;;;1.10;99.90;;;;;;5137119;27;20997;-64
2023/01/23 06:12:26;;;;;;;24.13;16.80;;;1.10;99.90;;;;;;5138691;27;20454;-63
2023/01/23 06:14:53;;;;;;;23.47;17.00;;;1.10;99.90;;;;;;5125107;27;20494;-63
2023/01/23 06:17:20;;;;;;;24.67;16.70;;;1.10;99.90;;;;;;5138400;27;20675;-64
2023/01/23 06:19:48;;;;;;;26.50;17.10;;;1.10;99.90;;;;;;5131319;27;20902;-64
2023/01/23 06:22:15;;;;;;;25.10;17.03;;;1.20;99.90;;;;;;5126303;27;20437;-64
2023/01/23 06:24:44;;;;;;;25.47;18.33;;;1.20;99.90;;;;;;5137779;27;20540;-64
2023/01/23 06:27:11;;;;;;;30.10;19.53;;;1.20;99.90;;;;;;5137180;27;20430;-63
2023/01/23 06:29:38;;;;;;;25.37;17.27;;;1.20;99.90;;;;;;5136561;27;20558;-64
2023/01/23 06:32:05;;;;;;;26.67;18.00;;;1.20;99.90;;;;;;5136735;27;20533;-63
2023/01/23 06:34:32;;;;;;;27.60;18.37;;;1.30;99.90;;;;;;5138995;27;20453;-63
2023/01/23 06:37:00;;;;;;;25.73;16.80;;;1.30;99.90;;;;;;5138868;27;20509;-64
2023/01/23 06:39:29;;;;;;;28.47;19.10;;;1.30;99.90;;;;;;5138815;27;20454;-64
2023/01/23 06:41:57;;;;;;;28.37;17.53;;;1.40;99.90;;;;;;5138081;27;20458;-64
2023/01/23 06:44:24;;;;;;;21.00;16.60;;;1.30;99.90;;;;;;5138331;27;20466;-64
2023/01/23 06:46:53;;;;;;;29.90;18.03;;;1.30;99.90;;;;;;5121360;27;20463;-64
2023/01/23 06:49:20;;;;;;;26.03;18.10;;;1.20;99.90;;;;;;5124739;27;20859;-64
2023/01/23 06:51:47;;;;;;;27.77;18.13;;;1.20;99.90;;;;;;5138669;27;20458;-63
2023/01/23 06:54:14;;;;;;;26.07;16.50;;;1.30;99.90;;;;;;5139112;27;20721;-64
2023/01/23 06:56:41;;;;;;;26.37;16.27;;;1.30;99.90;;;;;;5136530;27;20482;-64
2023/01/23 06:59:10;;;;;;;28.10;17.53;;;1.20;99.90;;;;;;5136773;27;20938;-63
2023/01/23 07:01:37;;;;;;;23.50;16.17;;;1.20;99.90;;;;;;5136622;27;20466;-64
2023/01/23 07:04:04;;;;;;;27.57;17.77;;;1.30;99.90;;;;;;5136627;27;20459;-63
2023/01/23 07:07:01;;;;;;;26.83;19.30;;;1.30;99.90;;;;;;5132853;27;20430;-64
2023/01/23 07:09:28;;;;;;;25.73;17.70;;;1.30;99.90;;;;;;5136230;27;20468;-64
2023/01/23 07:11:55;;;;;;;24.13;17.13;;;1.30;99.90;;;;;;5138111;27;20913;-64
2023/01/23 07:14:25;;;;;;;26.60;17.87;;;1.30;99.90;;;;;;5139102;27;20468;-64
2023/01/23 07:16:54;;;;;;;23.83;16.50;;;1.20;99.90;;;;;;5127942;27;20486;-64
2023/01/23 07:19:21;;;;;;;24.67;16.63;;;1.30;99.90;;;;;;5121286;27;20467;-64
2023/01/23 07:21:49;;;;;;;24.30;16.60;;;1.20;99.90;;;;;;5129190;27;20553;-63
2023/01/23 07:24:16;;;;;;;24.60;15.77;;;1.20;99.90;;;;;;5130338;27;20870;-64
2023/01/23 07:26:44;;;;;;;24.93;17.20;;;1.30;99.90;;;;;;5136129;27;20462;-64
2023/01/23 07:29:11;;;;;;;24.10;15.97;;;1.30;99.90;;;;;;5127065;27;20459;-64
2023/01/23 07:31:40;;;;;;;24.40;16.97;;;1.30;99.90;;;;;;5137072;27;20462;-64
2023/01/23 07:34:08;;;;;;;27.10;18.07;;;1.30;99.90;;;;;;5135047;27;20467;-64
2023/01/23 07:36:36;;;;;;;25.20;16.30;;;1.30;99.90;;;;;;5126880;27;20564;-64
2023/01/23 07:39:03;;;;;;;26.70;17.20;;;1.20;99.90;;;;;;5125027;27;20485;-64
2023/01/23 07:41:30;;;;;;;27.70;17.90;;;1.20;99.90;;;;;;5135906;27;20891;-64
2023/01/23 07:43:57;;;;;;;25.73;17.17;;;1.30;99.90;;;;;;5136616;27;20459;-64
2023/01/23 07:46:25;;;;;;;23.33;16.60;;;1.30;99.90;;;;;;5133658;27;20758;-64
2023/01/23 07:48:55;;;;;;;30.07;18.23;;;1.30;99.90;;;;;;5119624;27;20464;-64
2023/01/23 07:51:22;;;;;;;28.33;18.63;;;1.30;99.90;;;;;;5127869;27;20535;-64
2023/01/23 07:53:49;;;;;;;33.30;20.00;;;1.40;99.90;;;;;;5128243;27;20718;-64
2023/01/23 07:56:16;;;;;;;30.30;19.33;;;1.40;99.90;;;;;;5133941;27;20493;-64
2023/01/23 07:58:43;;;;;;;30.83;20.70;;;1.30;99.90;;;;;;5132340;27;20469;-64
2023/01/23 08:01:11;;;;;;;29.93;18.53;;;1.30;99.90;;;;;;5129137;27;20470;-64
2023/01/23 08:03:38;;;;;;;29.17;18.90;;;1.50;99.90;;;;;;5133040;28;20472;-64
2023/01/23 08:06:07;;;;;;;48.30;31.27;;;1.60;99.90;;;;;;5133843;27;20960;-64
2023/01/23 08:08:34;;;;;;;31.40;20.93;;;1.60;99.90;;;;;;5130624;28;20464;-64
2023/01/23 08:11:04;;;;;;;32.73;20.30;;;1.50;99.90;;;;;;5126330;27;20462;-64
2023/01/23 08:13:31;;;;;;;32.90;19.63;;;1.50;99.90;;;;;;5137722;27;20577;-64
2023/01/23 08:15:59;;;;;;;34.70;19.80;;;1.50;99.90;;;;;;5136437;27;20487;-63
2023/01/23 08:18:26;;;;;;;32.97;18.60;;;1.50;99.90;;;;;;5137735;27;20458;-64
2023/01/23 08:20:55;;;;;;;31.97;18.23;;;1.50;99.90;;;;;;5133282;27;20553;-64
2023/01/23 08:23:26;;;;;;;32.53;19.90;;;1.50;99.90;;;;;;5133930;27;20463;-63
2023/01/23 08:25:54;;;;;;;37.73;19.90;;;1.50;99.90;;;;;;5136489;27;20458;-64
2023/01/23 08:28:21;;;;;;;38.87;22.87;;;1.50;99.90;;;;;;5136258;27;20462;-64
2023/01/23 08:30:48;;;;;;;43.67;25.37;;;1.50;99.90;;;;;;5137332;27;20463;-63
2023/01/23 08:33:16;;;;;;;93.33;54.37;;;1.40;99.90;;;;;;5138009;27;20752;-64
2023/01/23 08:35:49;;;;;;;35.60;23.97;;;1.40;99.90;;;;;;5136336;27;20437;-63
2023/01/23 08:38:17;;;;;;;34.53;22.80;;;1.40;99.90;;;;;;5137189;27;20922;-64
2023/01/23 08:40:46;;;;;;;32.97;19.60;;;1.40;99.90;;;;;;5132305;27;20437;-64
2023/01/23 08:43:13;;;;;;;36.10;21.67;;;1.40;99.90;;;;;;5136363;27;20457;-64
2023/01/23 08:45:41;;;;;;;41.53;24.30;;;1.40;99.90;;;;;;5137838;27;20455;-64
2023/01/23 08:48:08;;;;;;;30.73;19.27;;;1.40;99.90;;;;;;5134519;28;21137;-64
2023/01/23 08:50:35;;;;;;;33.23;21.50;;;1.40;99.90;;;;;;5132148;28;20454;-64
2023/01/23 08:53:02;;;;;;;34.57;20.00;;;1.40;99.90;;;;;;5136192;28;20451;-64
2023/01/23 08:55:31;;;;;;;35.83;22.17;;;1.50;99.90;;;;;;5134860;27;20760;-64
2023/01/23 08:57:59;;;;;;;39.33;22.07;;;1.50;99.90;;;;;;5128362;28;20472;-64
2023/01/23 09:00:27;;;;;;;33.77;21.60;;;1.40;99.90;;;;;;5133147;27;20470;-64
2023/01/23 09:02:54;;;;;;;33.97;20.47;;;1.40;99.90;;;;;;5133073;27;20755;-64
2023/01/23 09:05:21;;;;;;;34.13;20.83;;;1.40;99.90;;;;;;5137710;27;20457;-64
2023/01/23 09:07:48;;;;;;;31.93;19.77;;;1.40;99.90;;;;;;5138015;27;20490;-62
2023/01/23 09:10:15;;;;;;;31.53;19.87;;;1.40;99.90;;;;;;5136870;27;20470;-63
2023/01/23 09:12:42;;;;;;;33.80;20.83;;;1.40;99.90;;;;;;5137224;27;20470;-63
2023/01/23 09:15:11;;;;;;;31.30;19.37;;;1.50;99.90;;;;;;5140057;27;20466;-63
2023/01/23 09:17:39;;;;;;;28.10;19.63;;;1.50;99.90;;;;;;5135589;27;20490;-63
2023/01/23 09:20:08;;;;;;;30.77;19.57;;;1.50;99.90;;;;;;5132771;27;20925;-62
2023/01/23 09:22:35;;;;;;;31.50;19.67;;;1.50;99.90;;;;;;5130316;27;20529;-63
2023/01/23 09:25:02;;;;;;;30.30;21.00;;;1.50;99.90;;;;;;5139058;27;20466;-62
2023/01/23 09:27:30;;;;;;;29.33;19.83;;;1.60;99.90;;;;;;5138067;27;20561;-62
2023/01/23 09:30:00;;;;;;;31.03;20.37;;;1.50;99.90;;;;;;5135695;27;20458;-61
2023/01/23 09:32:28;;;;;;;31.90;20.43;;;1.50;99.90;;;;;;5137263;27;20545;-62
2023/01/23 09:34:55;;;;;;;29.80;20.70;;;1.50;99.90;;;;;;5139003;27;20458;-61
2023/01/23 09:37:23;;;;;;;27.20;17.80;;;1.50;99.90;;;;;;5138949;27;20497;-62
2023/01/23 09:39:50;;;;;;;32.77;19.87;;;1.50;99.90;;;;;;5134051;27;20447;-62
2023/01/23 09:42:20;;;;;;;30.63;19.50;;;1.60;99.90;;;;;;5139166;27;20466;-63
2023/01/23 09:44:53;;;;;;;26.30;18.10;;;1.60;99.90;;;;;;5127728;27;20900;-62
2023/01/23 09:47:26;;;;;;;31.17;20.07;;;1.70;99.90;;;;;;5138983;27;20900;-63
2023/01/23 09:50:00;;;;;;;34.00;20.50;;;1.60;99.90;;;;;;5139109;27;20462;-61
2023/01/23 09:52:32;;;;;;;29.67;19.00;;;1.60;99.90;;;;;;5131081;27;20893;-63
2023/01/23 09:55:04;;;;;;;26.80;18.80;;;1.70;99.90;;;;;;5130718;27;20520;-62
2023/01/23 09:57:39;;;;;;;29.57;19.83;;;1.60;99.90;;;;;;5123447;27;20495;-62
2023/01/23 10:00:13;;;;;;;28.87;19.73;;;1.60;99.90;;;;;;5139043;27;20765;-63
2023/01/23 10:02:43;;;;;;;30.27;19.70;;;1.70;99.90;;;;;;5129809;27;20507;-63
2023/01/23 10:05:15;;;;;;;28.53;18.70;;;1.80;99.90;;;;;;5123330;27;20459;-63
2023/01/23 10:07:59;;;;;;;28.33;19.07;;;1.80;99.90;;;;;;5140129;27;20467;-63
2023/01/23 10:10:47;;;;;;;31.50;21.20;;;1.80;99.90;;;;;;5140186;27;20529;-63
2023/01/23 10:13:17;;;;;;;29.93;19.13;;;1.80;99.90;;;;;;5138979;27;20566;-62
2023/01/23 10:16:28;;;;;;;26.80;18.10;;;1.80;99.90;;;;;;5126890;27;20489;-63
2023/01/23 10:19:08;;;;;;;28.20;18.83;;;1.80;99.90;;;;;;5042749;28;20778;-62
2023/01/23 10:21:43;;;;;;;27.93;17.27;;;1.80;99.90;;;;;;5055344;28;20462;-63
2023/01/23 10:24:34;;;;;;;27.07;18.50;;;1.90;99.90;;;;;;5111554;27;20461;-63
2023/01/23 10:27:17;;;;;;;25.80;17.57;;;1.90;99.90;;;;;;5121539;27;20459;-62
2023/01/23 10:29:48;;;;;;;28.37;18.00;;;1.90;99.90;;;;;;5120316;27;20478;-63
2023/01/23 10:32:24;;;;;;;25.63;18.07;;;1.90;99.90;;;;;;5136956;27;20462;-63
2023/01/23 10:34:58;;;;;;;22.83;16.30;;;1.90;99.90;;;;;;5124789;27;20527;-63
2023/01/23 10:37:51;;;;;;;27.83;17.20;;;2.00;99.90;;;;;;5135485;27;20461;-63
2023/01/23 10:41:12;;;;;;;25.30;17.93;;;1.90;99.90;;;;;;5129727;27;20470;-63
2023/01/23 10:43:14;;;;;;;22.67;16.07;;;2.00;99.90;;;;;;5135883;27;20475;-63
2023/01/23 10:45:42;;;;;;;21.73;15.37;;;2.00;99.90;;;;;;5135766;27;20457;-63
2023/01/23 10:48:42;;;;;;;23.77;16.97;;;2.00;99.90;;;;;;5133016;27;20765;-63
2023/01/23 10:51:46;;;;;;;25.97;16.97;;;2.10;99.90;;;;;;5125027;27;20465;-63
2023/01/23 10:54:19;;;;;;;22.67;15.40;;;2.10;99.90;;;;;;5103133;27;20511;-63
2023/01/23 10:56:51;;;;;;;23.57;15.30;;;2.10;99.90;;;;;;5135986;27;20469;-62
2023/01/23 10:59:27;;;;;;;23.43;16.00;;;2.10;99.90;;;;;;5134427;27;20458;-63
2023/01/23 11:02:01;;;;;;;23.67;16.70;;;2.10;99.90;;;;;;5118935;27;20465;-63
2023/01/23 11:04:32;;;;;;;21.10;15.07;;;2.20;99.90;;;;;;5133079;27;20465;-63
2023/01/23 11:07:05;;;;;;;22.13;15.30;;;2.10;99.90;;;;;;5135744;27;20504;-63
2023/01/23 11:09:44;;;;;;;21.90;16.00;;;2.20;99.90;;;;;;5136205;27;20458;-63
2023/01/23 11:12:16;;;;;;;21.83;16.60;;;2.20;99.90;;;;;;5134981;27;20494;-64
2023/01/23 11:14:43;;;;;;;19.77;14.33;;;2.20;99.90;;;;;;5131535;27;20449;-64
2023/01/23 11:17:16;;;;;;;20.23;16.20;;;2.20;99.90;;;;;;5135858;27;20483;-64
2023/01/23 11:19:45;;;;;;;21.10;14.20;;;2.20;99.90;;;;;;5136508;27;20469;-64
2023/01/23 11:22:37;;;;;;;20.57;15.37;;;2.30;99.90;;;;;;5123961;27;20448;-65
2023/01/23 11:25:28;;;;;;;19.23;15.10;;;2.30;99.90;;;;;;5133870;27;20481;-65
2023/01/23 11:28:01;;;;;;;21.90;14.63;;;2.30;99.90;;;;;;5126790;27;20450;-65
2023/01/23 11:30:37;;;;;;;21.53;14.97;;;2.30;99.90;;;;;;5138750;27;20455;-65
2023/01/23 11:33:13;;;;;;;21.23;15.20;;;2.30;99.90;;;;;;5137192;27;20748;-66
2023/01/23 11:35:52;;;;;;;20.93;13.37;;;2.30;99.90;;;;;;5138363;27;20470;-65
2023/01/23 11:38:25;;;;;;;19.90;14.23;;;2.30;99.90;;;;;;5138395;27;20501;-64
2023/01/23 11:40:54;;;;;;;22.43;14.47;;;2.30;99.90;;;;;;5138699;27;20466;-63
2023/01/23 11:43:21;;;;;;;19.10;13.77;;;2.20;99.90;;;;;;5127056;27;20467;-63
2023/01/23 11:46:03;;;;;;;20.27;13.90;;;2.30;99.90;;;;;;5138139;27;20466;-63
2023/01/23 11:48:56;;;;;;;20.43;14.57;;;2.50;99.90;;;;;;5127702;27;20468;-63
2023/01/23 11:51:32;;;;;;;20.07;14.83;;;2.60;99.90;;;;;;5137834;27;20469;-63
2023/01/23 11:54:11;;;;;;;19.47;13.67;;;2.70;99.90;;;;;;5136498;27;20448;-63
2023/01/23 11:56:53;;;;;;;18.33;13.27;;;2.90;99.90;;;;;;5138277;27;20462;-63
2023/01/23 11:59:45;;;;;;;18.53;14.13;;;2.90;99.90;;;;;;5122082;27;20426;-62
2023/01/23 12:02:34;;;;;;;17.17;12.27;;;2.80;99.90;;;;;;5136189;27;20453;-62
2023/01/23 12:05:35;;;;;;;16.37;13.53;;;2.80;99.90;;;;;;5131151;27;20504;-61
2023/01/23 12:08:15;;;;;;;19.33;13.37;;;2.80;99.90;;;;;;5124338;27;20485;-62
2023/01/23 12:10:53;;;;;;;19.23;13.93;;;2.60;99.90;;;;;;5127659;27;20454;-60
2023/01/23 12:13:44;;;;;;;19.37;14.00;;;2.60;99.90;;;;;;5130305;27;20490;-62
2023/01/23 12:16:17;;;;;;;19.67;13.30;;;2.60;99.90;;;;;;5129549;27;20899;-61
2023/01/23 12:18:51;;;;;;;18.00;13.40;;;2.60;99.90;;;;;;5120911;28;20461;-61
2023/01/23 12:21:21;;;;;;;20.40;13.90;;;2.60;99.90;;;;;;5129371;27;20463;-61
2023/01/23 12:24:03;;;;;;;20.40;14.13;;;2.50;99.90;;;;;;5125176;27;20494;-60
2023/01/23 12:26:32;;;;;;;18.67;13.70;;;2.50;99.90;;;;;;5133400;28;20850;-60
2023/01/23 12:29:39;;;;;;;21.33;14.07;;;2.60;99.90;;;;;;5120840;28;20455;-64
2023/01/23 12:32:31;;;;;;;24.53;16.90;;;2.50;99.90;;;;;;5136551;27;20489;-64
2023/01/23 12:35:16;;;;;;;21.53;15.37;;;2.50;99.90;;;;;;5136796;27;20875;-64
2023/01/23 12:38:03;;;;;;;20.10;14.23;;;2.40;99.90;;;;;;5137843;27;20490;-64
2023/01/23 12:40:37;;;;;;;22.40;14.87;;;2.40;99.90;;;;;;5123570;27;20462;-64
2023/01/23 12:43:10;;;;;;;21.37;16.10;;;2.50;99.90;;;;;;5139080;27;20464;-64
2023/01/23 12:45:45;;;;;;;20.97;14.77;;;2.40;99.90;;;;;;5138676;27;20757;-63
2023/01/23 12:48:17;;;;;;;23.03;16.50;;;2.50;99.90;;;;;;5135995;27;20883;-63
2023/01/23 12:50:47;;;;;;;24.03;15.87;;;2.40;99.90;;;;;;5137180;27;20465;-63
2023/01/23 12:53:16;;;;;;;19.80;14.00;;;2.40;99.90;;;;;;5135900;27;20456;-63
2023/01/23 12:55:57;;;;;;;23.30;16.07;;;2.30;99.90;;;;;;5136575;27;20462;-58
2023/01/23 12:58:28;;;;;;;22.17;15.77;;;2.30;99.90;;;;;;5136613;27;20482;-61
2023/01/23 13:01:04;;;;;;;20.20;15.20;;;2.30;99.90;;;;;;5125730;27;20462;-62